sensor_id;sensor_type;location;lat;lon;timestamp;P1;durP1;ratioP1;P2;durP2;ratioP2
78774;SDS011;68119;43.398;3.676;2023-07-02T00:00:18;14.50;;;10.50;;
78774;SDS011;68119;43.398;3.676;2023-07-02T00:02:48;17.27;;;11.82;;
78774;SDS011;68119;43.398;3.676;2023-07-02T00:05:14;14.00;;;10.82;;
78774;SDS011;68119;43.398;3.676;2023-07-02T00:07:48;16.02;;;10.75;;
78774;SDS011;68119;43.398;3.676;2023-07-02T00:10:14;14.25;;;11.05;;
78774;SDS011;68119;43.398;3.676;2023-07-02T00:12:41;13.52;;;10.55;;
78774;SDS011;68119;43.398;3.676;2023-07-02T00:15:11;15.13;;;9.90;;
78774;SDS011;68119;43.398;3.676;2023-07-02T00:17:38;14.63;;;10.07;;
78774;SDS011;68119;43.398;3.676;2023-07-02T00:20:07;14.88;;;11.43;;
78774;SDS011;68119;43.398;3.676;2023-07-02T00:22:40;14.90;;;10.95;;
78774;SDS011;68119;43.398;3.676;2023-07-02T00:25:12;15.20;;;11.32;;
78774;SDS011;68119;43.398;3.676;2023-07-02T00:27:41;13.25;;;10.20;;
78774;SDS011;68119;43.398;3.676;2023-07-02T00:30:08;14.52;;;10.23;;
78774;SDS011;68119;43.398;3.676;2023-07-02T00:32:37;15.82;;;11.73;;
78774;SDS011;68119;43.398;3.676;2023-07-02T00:35:05;14.70;;;11.57;;
78774;SDS011;68119;43.398;3.676;2023-07-02T00:37:34;16.80;;;12.10;;
78774;SDS011;68119;43.398;3.676;2023-07-02T00:40:05;17.02;;;12.70;;
78774;SDS011;68119;43.398;3.676;2023-07-02T00:42:39;15.25;;;11.63;;
78774;SDS011;68119;43.398;3.676;2023-07-02T00:45:08;19.38;;;14.15;;
78774;SDS011;68119;43.398;3.676;2023-07-02T00:47:36;18.88;;;13.68;;
78774;SDS011;68119;43.398;3.676;2023-07-02T00:50:07;20.35;;;14.75;;
78774;SDS011;68119;43.398;3.676;2023-07-02T00:52:37;20.63;;;15.88;;
78774;SDS011;68119;43.398;3.676;2023-07-02T00:55:03;20.50;;;15.95;;
78774;SDS011;68119;43.398;3.676;2023-07-02T00:57:30;19.17;;;16.23;;
78774;SDS011;68119;43.398;3.676;2023-07-02T00:59:58;20.73;;;16.38;;
78774;SDS011;68119;43.398;3.676;2023-07-02T01:02:28;23.60;;;16.77;;
78774;SDS011;68119;43.398;3.676;2023-07-02T01:04:59;24.73;;;17.83;;
78774;SDS011;68119;43.398;3.676;2023-07-02T01:07:28;25.45;;;18.30;;
78774;SDS011;68119;43.398;3.676;2023-07-02T01:09:56;22.38;;;17.80;;
78774;SDS011;68119;43.398;3.676;2023-07-02T01:12:25;25.33;;;18.67;;
78774;SDS011;68119;43.398;3.676;2023-07-02T01:14:52;26.58;;;19.10;;
78774;SDS011;68119;43.398;3.676;2023-07-02T01:17:24;27.98;;;20.45;;
78774;SDS011;68119;43.398;3.676;2023-07-02T01:19:53;28.70;;;21.27;;
78774;SDS011;68119;43.398;3.676;2023-07-02T01:22:26;26.67;;;21.30;;
78774;SDS011;68119;43.398;3.676;2023-07-02T01:24:55;26.27;;;21.38;;
78774;SDS011;68119;43.398;3.676;2023-07-02T01:27:31;30.45;;;21.55;;
78774;SDS011;68119;43.398;3.676;2023-07-02T01:30:02;29.05;;;21.52;;
78774;SDS011;68119;43.398;3.676;2023-07-02T01:32:35;28.70;;;21.00;;
78774;SDS011;68119;43.398;3.676;2023-07-02T01:35:06;30.23;;;20.80;;
78774;SDS011;68119;43.398;3.676;2023-07-02T01:37:35;27.75;;;21.88;;
78774;SDS011;68119;43.398;3.676;2023-07-02T01:40:08;29.00;;;22.08;;
78774;SDS011;68119;43.398;3.676;2023-07-02T01:42:35;25.35;;;20.23;;
78774;SDS011;68119;43.398;3.676;2023-07-02T01:45:03;29.98;;;22.73;;
78774;SDS011;68119;43.398;3.676;2023-07-02T01:47:32;29.40;;;22.50;;
78774;SDS011;68119;43.398;3.676;2023-07-02T01:50:07;31.08;;;22.85;;
78774;SDS011;68119;43.398;3.676;2023-07-02T01:52:33;28.92;;;21.50;;
78774;SDS011;68119;43.398;3.676;2023-07-02T01:55:01;31.13;;;22.02;;
78774;SDS011;68119;43.398;3.676;2023-07-02T01:59:59;30.10;;;21.30;;
78774;SDS011;68119;43.398;3.676;2023-07-02T02:02:27;26.15;;;20.85;;
78774;SDS011;68119;43.398;3.676;2023-07-02T02:04:58;31.02;;;23.60;;
78774;SDS011;68119;43.398;3.676;2023-07-02T02:07:27;31.92;;;23.02;;
78774;SDS011;68119;43.398;3.676;2023-07-02T02:09:53;30.60;;;22.42;;
78774;SDS011;68119;43.398;3.676;2023-07-02T02:12:21;30.73;;;23.88;;
78774;SDS011;68119;43.398;3.676;2023-07-02T02:14:52;31.05;;;23.45;;
78774;SDS011;68119;43.398;3.676;2023-07-02T02:17:20;31.23;;;23.48;;
78774;SDS011;68119;43.398;3.676;2023-07-02T02:19:49;33.17;;;24.23;;
78774;SDS011;68119;43.398;3.676;2023-07-02T02:22:17;32.35;;;23.27;;
78774;SDS011;68119;43.398;3.676;2023-07-02T02:24:44;40.15;;;24.88;;
78774;SDS011;68119;43.398;3.676;2023-07-02T02:27:10;35.15;;;24.00;;
78774;SDS011;68119;43.398;3.676;2023-07-02T02:29:41;34.40;;;24.30;;
78774;SDS011;68119;43.398;3.676;2023-07-02T02:32:09;38.03;;;24.88;;
78774;SDS011;68119;43.398;3.676;2023-07-02T02:34:38;30.60;;;23.92;;
78774;SDS011;68119;43.398;3.676;2023-07-02T02:37:10;30.85;;;24.60;;
78774;SDS011;68119;43.398;3.676;2023-07-02T02:39:36;31.52;;;24.45;;
78774;SDS011;68119;43.398;3.676;2023-07-02T02:42:05;34.35;;;25.70;;
78774;SDS011;68119;43.398;3.676;2023-07-02T02:44:34;33.45;;;24.00;;
78774;SDS011;68119;43.398;3.676;2023-07-02T02:47:03;31.63;;;24.75;;
78774;SDS011;68119;43.398;3.676;2023-07-02T02:49:30;34.53;;;24.70;;
78774;SDS011;68119;43.398;3.676;2023-07-02T02:51:59;36.17;;;26.33;;
78774;SDS011;68119;43.398;3.676;2023-07-02T02:54:27;35.08;;;23.92;;
78774;SDS011;68119;43.398;3.676;2023-07-02T02:56:54;35.22;;;25.23;;
78774;SDS011;68119;43.398;3.676;2023-07-02T02:59:22;31.88;;;24.15;;
78774;SDS011;68119;43.398;3.676;2023-07-02T03:01:51;35.63;;;25.15;;
78774;SDS011;68119;43.398;3.676;2023-07-02T03:04:20;33.28;;;25.20;;
78774;SDS011;68119;43.398;3.676;2023-07-02T03:06:49;32.42;;;23.80;;
78774;SDS011;68119;43.398;3.676;2023-07-02T03:09:20;35.78;;;24.55;;
78774;SDS011;68119;43.398;3.676;2023-07-02T03:11:46;32.78;;;24.17;;
78774;SDS011;68119;43.398;3.676;2023-07-02T03:14:15;35.47;;;24.92;;
78774;SDS011;68119;43.398;3.676;2023-07-02T03:16:46;33.08;;;25.27;;
78774;SDS011;68119;43.398;3.676;2023-07-02T03:19:14;31.98;;;23.40;;
78774;SDS011;68119;43.398;3.676;2023-07-02T03:21:44;33.30;;;24.33;;
78774;SDS011;68119;43.398;3.676;2023-07-02T03:24:15;34.50;;;24.33;;
78774;SDS011;68119;43.398;3.676;2023-07-02T03:26:44;32.08;;;23.73;;
78774;SDS011;68119;43.398;3.676;2023-07-02T03:29:11;34.40;;;25.73;;
78774;SDS011;68119;43.398;3.676;2023-07-02T03:31:42;34.35;;;24.13;;
78774;SDS011;68119;43.398;3.676;2023-07-02T03:34:09;33.28;;;23.48;;
78774;SDS011;68119;43.398;3.676;2023-07-02T03:36:37;33.38;;;24.70;;
78774;SDS011;68119;43.398;3.676;2023-07-02T03:39:06;34.38;;;23.83;;
78774;SDS011;68119;43.398;3.676;2023-07-02T03:41:39;30.80;;;22.63;;
78774;SDS011;68119;43.398;3.676;2023-07-02T03:44:08;31.83;;;24.13;;
78774;SDS011;68119;43.398;3.676;2023-07-02T03:46:39;32.17;;;23.17;;
78774;SDS011;68119;43.398;3.676;2023-07-02T03:49:10;35.72;;;24.00;;
78774;SDS011;68119;43.398;3.676;2023-07-02T03:51:39;33.13;;;23.42;;
78774;SDS011;68119;43.398;3.676;2023-07-02T03:54:05;32.20;;;22.83;;
78774;SDS011;68119;43.398;3.676;2023-07-02T03:56:32;30.70;;;22.67;;
78774;SDS011;68119;43.398;3.676;2023-07-02T03:59:00;32.17;;;22.35;;
78774;SDS011;68119;43.398;3.676;2023-07-02T04:01:35;31.63;;;22.42;;
78774;SDS011;68119;43.398;3.676;2023-07-02T04:04:01;32.13;;;20.70;;
78774;SDS011;68119;43.398;3.676;2023-07-02T04:06:27;32.47;;;22.05;;
78774;SDS011;68119;43.398;3.676;2023-07-02T04:08:58;29.48;;;21.52;;
78774;SDS011;68119;43.398;3.676;2023-07-02T04:11:26;29.40;;;21.27;;
78774;SDS011;68119;43.398;3.676;2023-07-02T04:13:55;35.55;;;21.75;;
78774;SDS011;68119;43.398;3.676;2023-07-02T04:16:21;29.58;;;20.73;;
78774;SDS011;68119;43.398;3.676;2023-07-02T04:18:47;28.75;;;20.17;;
78774;SDS011;68119;43.398;3.676;2023-07-02T04:21:13;28.85;;;19.58;;
78774;SDS011;68119;43.398;3.676;2023-07-02T04:23:40;31.55;;;19.55;;
78774;SDS011;68119;43.398;3.676;2023-07-02T04:26:06;31.65;;;19.98;;
78774;SDS011;68119;43.398;3.676;2023-07-02T04:28:35;27.38;;;19.35;;
78774;SDS011;68119;43.398;3.676;2023-07-02T04:31:03;27.15;;;18.60;;
78774;SDS011;68119;43.398;3.676;2023-07-02T04:33:32;27.63;;;18.42;;
78774;SDS011;68119;43.398;3.676;2023-07-02T04:36:05;27.25;;;17.83;;
78774;SDS011;68119;43.398;3.676;2023-07-02T04:38:34;24.10;;;18.05;;
78774;SDS011;68119;43.398;3.676;2023-07-02T04:41:03;24.88;;;17.88;;
78774;SDS011;68119;43.398;3.676;2023-07-02T04:43:30;24.75;;;17.35;;
78774;SDS011;68119;43.398;3.676;2023-07-02T04:46:02;22.88;;;17.95;;
78774;SDS011;68119;43.398;3.676;2023-07-02T04:48:32;25.20;;;17.05;;
78774;SDS011;68119;43.398;3.676;2023-07-02T04:51:04;22.92;;;16.75;;
78774;SDS011;68119;43.398;3.676;2023-07-02T04:53:35;21.90;;;17.05;;
78774;SDS011;68119;43.398;3.676;2023-07-02T04:56:07;24.25;;;17.00;;
78774;SDS011;68119;43.398;3.676;2023-07-02T04:58:35;25.08;;;16.95;;
78774;SDS011;68119;43.398;3.676;2023-07-02T05:01:06;24.05;;;17.60;;
78774;SDS011;68119;43.398;3.676;2023-07-02T05:03:38;21.55;;;15.93;;
78774;SDS011;68119;43.398;3.676;2023-07-02T05:06:09;21.00;;;15.55;;
78774;SDS011;68119;43.398;3.676;2023-07-02T05:08:38;21.30;;;15.90;;
78774;SDS011;68119;43.398;3.676;2023-07-02T05:11:06;21.23;;;15.68;;
78774;SDS011;68119;43.398;3.676;2023-07-02T05:13:35;20.58;;;14.30;;
78774;SDS011;68119;43.398;3.676;2023-07-02T05:16:04;18.70;;;13.68;;
78774;SDS011;68119;43.398;3.676;2023-07-02T05:18:33;23.20;;;14.32;;
78774;SDS011;68119;43.398;3.676;2023-07-02T05:21:04;16.63;;;13.25;;
78774;SDS011;68119;43.398;3.676;2023-07-02T05:23:33;17.48;;;12.45;;
78774;SDS011;68119;43.398;3.676;2023-07-02T05:26:01;19.15;;;12.48;;
78774;SDS011;68119;43.398;3.676;2023-07-02T05:28:32;17.92;;;12.35;;
78774;SDS011;68119;43.398;3.676;2023-07-02T05:30:58;17.00;;;12.18;;
78774;SDS011;68119;43.398;3.676;2023-07-02T05:33:27;17.05;;;11.85;;
78774;SDS011;68119;43.398;3.676;2023-07-02T05:36:00;16.13;;;11.13;;
78774;SDS011;68119;43.398;3.676;2023-07-02T05:38:27;12.70;;;9.63;;
78774;SDS011;68119;43.398;3.676;2023-07-02T05:40:56;15.05;;;10.88;;
78774;SDS011;68119;43.398;3.676;2023-07-02T05:43:27;12.15;;;9.85;;
78774;SDS011;68119;43.398;3.676;2023-07-02T05:45:53;13.80;;;9.95;;
78774;SDS011;68119;43.398;3.676;2023-07-02T05:48:23;14.13;;;9.60;;
78774;SDS011;68119;43.398;3.676;2023-07-02T05:50:49;13.48;;;9.38;;
78774;SDS011;68119;43.398;3.676;2023-07-02T05:53:18;13.23;;;9.32;;
78774;SDS011;68119;43.398;3.676;2023-07-02T05:55:44;12.27;;;8.82;;
78774;SDS011;68119;43.398;3.676;2023-07-02T05:58:12;12.45;;;8.63;;
78774;SDS011;68119;43.398;3.676;2023-07-02T06:00:44;14.52;;;9.43;;
78774;SDS011;68119;43.398;3.676;2023-07-02T06:03:14;11.85;;;8.10;;
78774;SDS011;68119;43.398;3.676;2023-07-02T06:05:45;10.17;;;7.90;;
78774;SDS011;68119;43.398;3.676;2023-07-02T06:08:12;11.25;;;7.88;;
78774;SDS011;68119;43.398;3.676;2023-07-02T06:10:46;10.13;;;7.78;;
78774;SDS011;68119;43.398;3.676;2023-07-02T06:13:14;11.25;;;7.32;;
78774;SDS011;68119;43.398;3.676;2023-07-02T06:15:43;9.90;;;6.95;;
78774;SDS011;68119;43.398;3.676;2023-07-02T06:18:10;9.13;;;6.55;;
78774;SDS011;68119;43.398;3.676;2023-07-02T06:20:36;10.10;;;6.53;;
78774;SDS011;68119;43.398;3.676;2023-07-02T06:23:04;8.77;;;6.30;;
78774;SDS011;68119;43.398;3.676;2023-07-02T06:25:33;8.65;;;6.30;;
78774;SDS011;68119;43.398;3.676;2023-07-02T06:28:01;6.47;;;5.20;;
78774;SDS011;68119;43.398;3.676;2023-07-02T06:30:32;8.98;;;5.30;;
78774;SDS011;68119;43.398;3.676;2023-07-02T06:32:59;7.47;;;5.10;;
78774;SDS011;68119;43.398;3.676;2023-07-02T06:35:30;8.02;;;5.45;;
78774;SDS011;68119;43.398;3.676;2023-07-02T06:37:59;6.75;;;5.00;;
78774;SDS011;68119;43.398;3.676;2023-07-02T06:40:30;6.72;;;5.03;;
78774;SDS011;68119;43.398;3.676;2023-07-02T06:42:56;7.80;;;4.68;;
78774;SDS011;68119;43.398;3.676;2023-07-02T06:45:25;7.28;;;4.90;;
78774;SDS011;68119;43.398;3.676;2023-07-02T06:47:57;7.18;;;4.72;;
78774;SDS011;68119;43.398;3.676;2023-07-02T06:50:23;5.63;;;4.28;;
78774;SDS011;68119;43.398;3.676;2023-07-02T06:52:49;6.20;;;4.45;;
78774;SDS011;68119;43.398;3.676;2023-07-02T06:55:18;7.05;;;3.78;;
78774;SDS011;68119;43.398;3.676;2023-07-02T06:57:44;6.30;;;4.00;;
78774;SDS011;68119;43.398;3.676;2023-07-02T07:00:11;5.63;;;4.10;;
78774;SDS011;68119;43.398;3.676;2023-07-02T07:02:45;6.82;;;4.30;;
78774;SDS011;68119;43.398;3.676;2023-07-02T07:05:15;5.45;;;3.50;;
78774;SDS011;68119;43.398;3.676;2023-07-02T07:07:43;5.80;;;4.07;;
78774;SDS011;68119;43.398;3.676;2023-07-02T07:10:09;4.88;;;3.63;;
78774;SDS011;68119;43.398;3.676;2023-07-02T07:12:38;5.13;;;3.63;;
78774;SDS011;68119;43.398;3.676;2023-07-02T07:15:10;4.95;;;3.88;;
78774;SDS011;68119;43.398;3.676;2023-07-02T07:17:37;6.22;;;3.65;;
78774;SDS011;68119;43.398;3.676;2023-07-02T07:20:08;4.80;;;3.83;;
78774;SDS011;68119;43.398;3.676;2023-07-02T07:22:40;6.03;;;3.42;;
78774;SDS011;68119;43.398;3.676;2023-07-02T07:25:08;4.80;;;3.58;;
78774;SDS011;68119;43.398;3.676;2023-07-02T07:27:39;3.58;;;2.97;;
78774;SDS011;68119;43.398;3.676;2023-07-02T07:30:05;3.92;;;2.97;;
78774;SDS011;68119;43.398;3.676;2023-07-02T07:32:32;4.28;;;2.88;;
78774;SDS011;68119;43.398;3.676;2023-07-02T07:34:58;4.20;;;2.53;;
78774;SDS011;68119;43.398;3.676;2023-07-02T07:37:26;3.88;;;2.60;;
78774;SDS011;68119;43.398;3.676;2023-07-02T07:39:53;5.75;;;2.20;;
78774;SDS011;68119;43.398;3.676;2023-07-02T07:42:21;4.47;;;2.45;;
78774;SDS011;68119;43.398;3.676;2023-07-02T07:44:50;2.97;;;2.38;;
78774;SDS011;68119;43.398;3.676;2023-07-02T07:47:16;2.50;;;2.10;;
78774;SDS011;68119;43.398;3.676;2023-07-02T07:49:44;2.75;;;2.13;;
78774;SDS011;68119;43.398;3.676;2023-07-02T07:52:11;2.03;;;1.75;;
78774;SDS011;68119;43.398;3.676;2023-07-02T07:54:37;1.45;;;1.33;;
78774;SDS011;68119;43.398;3.676;2023-07-02T07:57:04;1.05;;;0.95;;
78774;SDS011;68119;43.398;3.676;2023-07-02T07:59:30;2.70;;;1.27;;
78774;SDS011;68119;43.398;3.676;2023-07-02T08:02:02;1.40;;;1.30;;
78774;SDS011;68119;43.398;3.676;2023-07-02T08:04:31;1.55;;;1.30;;
78774;SDS011;68119;43.398;3.676;2023-07-02T08:06:57;1.17;;;1.05;;
78774;SDS011;68119;43.398;3.676;2023-07-02T08:09:25;1.88;;;0.90;;
78774;SDS011;68119;43.398;3.676;2023-07-02T08:11:52;3.15;;;0.82;;
78774;SDS011;68119;43.398;3.676;2023-07-02T08:14:20;0.98;;;0.70;;
78774;SDS011;68119;43.398;3.676;2023-07-02T08:16:49;0.98;;;0.70;;
78774;SDS011;68119;43.398;3.676;2023-07-02T08:19:20;0.82;;;0.82;;
78774;SDS011;68119;43.398;3.676;2023-07-02T08:21:49;3.05;;;0.68;;
78774;SDS011;68119;43.398;3.676;2023-07-02T08:24:15;2.10;;;0.68;;
78774;SDS011;68119;43.398;3.676;2023-07-02T08:26:44;2.30;;;0.70;;
78774;SDS011;68119;43.398;3.676;2023-07-02T08:29:10;0.45;;;0.45;;
78774;SDS011;68119;43.398;3.676;2023-07-02T08:31:36;0.38;;;0.38;;
78774;SDS011;68119;43.398;3.676;2023-07-02T08:34:06;1.13;;;0.73;;
78774;SDS011;68119;43.398;3.676;2023-07-02T08:36:35;1.65;;;0.70;;
78774;SDS011;68119;43.398;3.676;2023-07-02T08:39:04;1.33;;;0.82;;
78774;SDS011;68119;43.398;3.676;2023-07-02T08:41:30;0.65;;;0.65;;
78774;SDS011;68119;43.398;3.676;2023-07-02T08:44:11;0.55;;;0.52;;
78774;SDS011;68119;43.398;3.676;2023-07-02T08:46:55;1.10;;;0.55;;
78774;SDS011;68119;43.398;3.676;2023-07-02T08:49:22;0.93;;;0.70;;
78774;SDS011;68119;43.398;3.676;2023-07-02T08:51:48;0.30;;;0.30;;
78774;SDS011;68119;43.398;3.676;2023-07-02T08:54:16;0.50;;;0.50;;
78774;SDS011;68119;43.398;3.676;2023-07-02T08:56:45;1.02;;;0.57;;
78774;SDS011;68119;43.398;3.676;2023-07-02T08:59:12;1.85;;;0.77;;
78774;SDS011;68119;43.398;3.676;2023-07-02T09:04:22;0.40;;;0.40;;
78774;SDS011;68119;43.398;3.676;2023-07-02T09:09:33;2.00;;;0.52;;
78774;SDS011;68119;43.398;3.676;2023-07-02T09:12:21;1.15;;;0.50;;
78774;SDS011;68119;43.398;3.676;2023-07-02T09:14:47;3.10;;;0.55;;
78774;SDS011;68119;43.398;3.676;2023-07-02T09:17:19;0.95;;;0.47;;
78774;SDS011;68119;43.398;3.676;2023-07-02T09:19:49;1.65;;;0.65;;
78774;SDS011;68119;43.398;3.676;2023-07-02T09:22:21;1.83;;;0.52;;
78774;SDS011;68119;43.398;3.676;2023-07-02T09:24:51;5.00;;;0.93;;
78774;SDS011;68119;43.398;3.676;2023-07-02T09:32:35;1.98;;;0.90;;
78774;SDS011;68119;43.398;3.676;2023-07-02T09:35:04;3.35;;;1.17;;
78774;SDS011;68119;43.398;3.676;2023-07-02T09:37:30;3.35;;;1.00;;
78774;SDS011;68119;43.398;3.676;2023-07-02T09:39:56;1.55;;;1.00;;
78774;SDS011;68119;43.398;3.676;2023-07-02T09:42:25;2.78;;;0.95;;
78774;SDS011;68119;43.398;3.676;2023-07-02T09:44:52;1.48;;;1.00;;
78774;SDS011;68119;43.398;3.676;2023-07-02T09:47:21;0.60;;;0.60;;
78774;SDS011;68119;43.398;3.676;2023-07-02T09:49:57;0.98;;;0.93;;
78774;SDS011;68119;43.398;3.676;2023-07-02T09:52:27;1.33;;;0.95;;
78774;SDS011;68119;43.398;3.676;2023-07-02T09:54:58;1.42;;;0.85;;
78774;SDS011;68119;43.398;3.676;2023-07-02T09:57:27;1.83;;;0.80;;
78774;SDS011;68119;43.398;3.676;2023-07-02T09:59:56;4.95;;;1.20;;
78774;SDS011;68119;43.398;3.676;2023-07-02T10:02:22;6.07;;;0.90;;
78774;SDS011;68119;43.398;3.676;2023-07-02T10:04:48;2.08;;;1.08;;
78774;SDS011;68119;43.398;3.676;2023-07-02T10:07:34;1.65;;;0.95;;
78774;SDS011;68119;43.398;3.676;2023-07-02T10:10:03;1.58;;;0.90;;
78774;SDS011;68119;43.398;3.676;2023-07-02T10:12:34;3.10;;;1.00;;
78774;SDS011;68119;43.398;3.676;2023-07-02T10:15:04;1.08;;;0.90;;
78774;SDS011;68119;43.398;3.676;2023-07-02T10:17:36;1.50;;;1.00;;
78774;SDS011;68119;43.398;3.676;2023-07-02T10:20:05;1.48;;;0.75;;
78774;SDS011;68119;43.398;3.676;2023-07-02T10:22:46;2.58;;;1.10;;
78774;SDS011;68119;43.398;3.676;2023-07-02T10:25:35;2.75;;;1.10;;
78774;SDS011;68119;43.398;3.676;2023-07-02T10:28:19;2.15;;;1.05;;
78774;SDS011;68119;43.398;3.676;2023-07-02T10:30:50;3.03;;;1.20;;
78774;SDS011;68119;43.398;3.676;2023-07-02T10:33:18;2.00;;;1.13;;
78774;SDS011;68119;43.398;3.676;2023-07-02T10:35:49;3.65;;;1.27;;
78774;SDS011;68119;43.398;3.676;2023-07-02T10:38:19;1.35;;;1.23;;
78774;SDS011;68119;43.398;3.676;2023-07-02T10:40:46;4.53;;;1.40;;
78774;SDS011;68119;43.398;3.676;2023-07-02T10:43:23;3.70;;;1.50;;
78774;SDS011;68119;43.398;3.676;2023-07-02T10:45:55;2.67;;;1.70;;
78774;SDS011;68119;43.398;3.676;2023-07-02T10:48:21;3.60;;;1.20;;
78774;SDS011;68119;43.398;3.676;2023-07-02T10:50:48;2.53;;;1.30;;
78774;SDS011;68119;43.398;3.676;2023-07-02T10:53:16;3.42;;;1.33;;
78774;SDS011;68119;43.398;3.676;2023-07-02T10:55:45;1.90;;;1.50;;
78774;SDS011;68119;43.398;3.676;2023-07-02T10:58:14;3.20;;;1.20;;
78774;SDS011;68119;43.398;3.676;2023-07-02T11:00:46;7.97;;;1.38;;
78774;SDS011;68119;43.398;3.676;2023-07-02T11:03:16;2.25;;;1.50;;
78774;SDS011;68119;43.398;3.676;2023-07-02T11:08:12;5.45;;;1.50;;
78774;SDS011;68119;43.398;3.676;2023-07-02T11:10:40;2.20;;;1.60;;
78774;SDS011;68119;43.398;3.676;2023-07-02T11:13:13;2.67;;;1.60;;
78774;SDS011;68119;43.398;3.676;2023-07-02T11:15:42;1.90;;;1.20;;
78774;SDS011;68119;43.398;3.676;2023-07-02T11:18:17;1.50;;;1.40;;
78774;SDS011;68119;43.398;3.676;2023-07-02T11:20:46;1.77;;;1.42;;
78774;SDS011;68119;43.398;3.676;2023-07-02T11:23:22;3.53;;;1.60;;
78774;SDS011;68119;43.398;3.676;2023-07-02T11:25:58;2.25;;;1.50;;
78774;SDS011;68119;43.398;3.676;2023-07-02T11:28:28;3.80;;;1.30;;
78774;SDS011;68119;43.398;3.676;2023-07-02T11:30:56;6.90;;;1.65;;
78774;SDS011;68119;43.398;3.676;2023-07-02T11:33:38;1.60;;;1.50;;
78774;SDS011;68119;43.398;3.676;2023-07-02T11:36:05;5.70;;;1.60;;
78774;SDS011;68119;43.398;3.676;2023-07-02T11:38:32;2.97;;;1.40;;
78774;SDS011;68119;43.398;3.676;2023-07-02T11:41:04;1.55;;;1.30;;
78774;SDS011;68119;43.398;3.676;2023-07-02T11:43:30;4.85;;;1.63;;
78774;SDS011;68119;43.398;3.676;2023-07-02T11:45:57;3.67;;;1.70;;
78774;SDS011;68119;43.398;3.676;2023-07-02T11:48:25;2.70;;;1.50;;
78774;SDS011;68119;43.398;3.676;2023-07-02T11:50:56;2.13;;;1.42;;
78774;SDS011;68119;43.398;3.676;2023-07-02T11:53:22;3.92;;;1.75;;
78774;SDS011;68119;43.398;3.676;2023-07-02T11:55:49;3.88;;;1.50;;
78774;SDS011;68119;43.398;3.676;2023-07-02T11:58:17;1.92;;;1.40;;
78774;SDS011;68119;43.398;3.676;2023-07-02T12:00:43;4.65;;;1.63;;
78774;SDS011;68119;43.398;3.676;2023-07-02T12:03:10;2.20;;;1.45;;
78774;SDS011;68119;43.398;3.676;2023-07-02T12:05:36;3.17;;;1.40;;
78774;SDS011;68119;43.398;3.676;2023-07-02T12:08:07;2.92;;;1.50;;
78774;SDS011;68119;43.398;3.676;2023-07-02T12:10:33;4.53;;;1.58;;
78774;SDS011;68119;43.398;3.676;2023-07-02T12:12:59;4.10;;;1.67;;
78774;SDS011;68119;43.398;3.676;2023-07-02T12:15:26;3.25;;;1.52;;
78774;SDS011;68119;43.398;3.676;2023-07-02T12:17:56;3.42;;;1.35;;
78774;SDS011;68119;43.398;3.676;2023-07-02T12:20:25;5.00;;;1.80;;
78774;SDS011;68119;43.398;3.676;2023-07-02T12:22:53;2.08;;;1.65;;
78774;SDS011;68119;43.398;3.676;2023-07-02T12:25:23;2.20;;;2.00;;
78774;SDS011;68119;43.398;3.676;2023-07-02T12:27:51;3.83;;;2.40;;
78774;SDS011;68119;43.398;3.676;2023-07-02T12:30:18;4.23;;;1.73;;
78774;SDS011;68119;43.398;3.676;2023-07-02T12:32:44;4.32;;;3.28;;
78774;SDS011;68119;43.398;3.676;2023-07-02T12:35:11;3.58;;;2.42;;
78774;SDS011;68119;43.398;3.676;2023-07-02T12:37:46;5.38;;;2.20;;
78774;SDS011;68119;43.398;3.676;2023-07-02T12:40:13;2.08;;;1.85;;
78774;SDS011;68119;43.398;3.676;2023-07-02T12:42:45;6.68;;;2.65;;
78774;SDS011;68119;43.398;3.676;2023-07-02T12:45:11;3.10;;;2.30;;
78774;SDS011;68119;43.398;3.676;2023-07-02T12:47:38;4.57;;;1.67;;
78774;SDS011;68119;43.398;3.676;2023-07-02T12:50:05;4.63;;;2.03;;
78774;SDS011;68119;43.398;3.676;2023-07-02T12:52:34;5.10;;;2.05;;
78774;SDS011;68119;43.398;3.676;2023-07-02T12:55:02;4.10;;;2.45;;
78774;SDS011;68119;43.398;3.676;2023-07-02T12:57:28;6.20;;;2.85;;
78774;SDS011;68119;43.398;3.676;2023-07-02T12:59:57;3.72;;;2.47;;
78774;SDS011;68119;43.398;3.676;2023-07-02T13:02:23;3.83;;;2.40;;
78774;SDS011;68119;43.398;3.676;2023-07-02T13:04:52;2.90;;;1.90;;
78774;SDS011;68119;43.398;3.676;2023-07-02T13:07:18;2.22;;;1.60;;
78774;SDS011;68119;43.398;3.676;2023-07-02T13:09:47;2.95;;;1.65;;
78774;SDS011;68119;43.398;3.676;2023-07-02T13:12:15;3.08;;;1.70;;
78774;SDS011;68119;43.398;3.676;2023-07-02T13:14:45;7.28;;;1.90;;
78774;SDS011;68119;43.398;3.676;2023-07-02T13:17:11;4.20;;;2.00;;
78774;SDS011;68119;43.398;3.676;2023-07-02T13:19:39;4.05;;;2.00;;
78774;SDS011;68119;43.398;3.676;2023-07-02T13:22:05;5.90;;;2.10;;
78774;SDS011;68119;43.398;3.676;2023-07-02T13:24:38;5.22;;;2.22;;
78774;SDS011;68119;43.398;3.676;2023-07-02T13:27:12;3.08;;;1.88;;
78774;SDS011;68119;43.398;3.676;2023-07-02T13:29:41;3.70;;;2.10;;
78774;SDS011;68119;43.398;3.676;2023-07-02T13:32:08;6.20;;;2.15;;
78774;SDS011;68119;43.398;3.676;2023-07-02T13:34:39;3.72;;;2.03;;
78774;SDS011;68119;43.398;3.676;2023-07-02T13:37:10;2.60;;;1.80;;
78774;SDS011;68119;43.398;3.676;2023-07-02T13:39:36;2.65;;;1.88;;
78774;SDS011;68119;43.398;3.676;2023-07-02T13:42:08;2.40;;;1.90;;
78774;SDS011;68119;43.398;3.676;2023-07-02T13:44:34;2.00;;;1.73;;
78774;SDS011;68119;43.398;3.676;2023-07-02T13:47:02;3.58;;;2.22;;
78774;SDS011;68119;43.398;3.676;2023-07-02T13:49:29;2.60;;;1.90;;
78774;SDS011;68119;43.398;3.676;2023-07-02T13:51:55;3.47;;;2.10;;
78774;SDS011;68119;43.398;3.676;2023-07-02T13:54:24;2.75;;;1.90;;
78774;SDS011;68119;43.398;3.676;2023-07-02T13:56:51;3.30;;;1.90;;
78774;SDS011;68119;43.398;3.676;2023-07-02T13:59:22;3.00;;;1.80;;
78774;SDS011;68119;43.398;3.676;2023-07-02T14:01:49;3.97;;;2.10;;
78774;SDS011;68119;43.398;3.676;2023-07-02T14:04:16;8.15;;;2.40;;
78774;SDS011;68119;43.398;3.676;2023-07-02T14:06:42;3.03;;;2.17;;
78774;SDS011;68119;43.398;3.676;2023-07-02T14:09:11;8.27;;;2.13;;
78774;SDS011;68119;43.398;3.676;2023-07-02T14:11:40;4.70;;;2.40;;
78774;SDS011;68119;43.398;3.676;2023-07-02T14:14:09;3.58;;;2.28;;
78774;SDS011;68119;43.398;3.676;2023-07-02T14:16:35;3.08;;;2.30;;
78774;SDS011;68119;43.398;3.676;2023-07-02T14:19:06;4.93;;;2.60;;
78774;SDS011;68119;43.398;3.676;2023-07-02T14:21:32;4.30;;;2.88;;
78774;SDS011;68119;43.398;3.676;2023-07-02T14:23:58;5.20;;;2.63;;
78774;SDS011;68119;43.398;3.676;2023-07-02T14:26:28;8.57;;;2.55;;
78774;SDS011;68119;43.398;3.676;2023-07-02T14:28:59;5.88;;;2.63;;
78774;SDS011;68119;43.398;3.676;2023-07-02T14:31:28;3.50;;;2.38;;
78774;SDS011;68119;43.398;3.676;2023-07-02T14:33:54;4.13;;;2.80;;
78774;SDS011;68119;43.398;3.676;2023-07-02T14:36:21;3.83;;;2.50;;
78774;SDS011;68119;43.398;3.676;2023-07-02T14:38:50;4.07;;;2.67;;
78774;SDS011;68119;43.398;3.676;2023-07-02T14:41:16;2.88;;;2.33;;
78774;SDS011;68119;43.398;3.676;2023-07-02T14:43:42;4.38;;;2.95;;
78774;SDS011;68119;43.398;3.676;2023-07-02T14:46:09;4.15;;;2.58;;
78774;SDS011;68119;43.398;3.676;2023-07-02T14:48:40;4.83;;;2.70;;
78774;SDS011;68119;43.398;3.676;2023-07-02T14:51:06;3.92;;;2.78;;
78774;SDS011;68119;43.398;3.676;2023-07-02T14:53:33;5.38;;;2.95;;
78774;SDS011;68119;43.398;3.676;2023-07-02T14:56:02;4.28;;;2.67;;
78774;SDS011;68119;43.398;3.676;2023-07-02T14:58:29;6.32;;;2.80;;
78774;SDS011;68119;43.398;3.676;2023-07-02T15:00:58;5.10;;;2.97;;
78774;SDS011;68119;43.398;3.676;2023-07-02T15:03:27;7.18;;;2.97;;